createdAt,value
2019-05-28T00:00:41.135Z,5.77
2019-05-28T00:05:44.586Z,5.13
2019-05-28T00:10:48.337Z,5.50
2019-05-28T00:15:52.560Z,6.90
2019-05-28T00:20:56.068Z,3.90
2019-05-28T00:25:59.487Z,6.13
2019-05-28T00:31:02.969Z,7.30
2019-05-28T00:36:06.460Z,5.40
2019-05-28T00:41:11.547Z,5.67
2019-05-28T00:46:15.031Z,5.83
2019-05-28T00:51:18.457Z,7.20
2019-05-28T00:56:22.358Z,6.97
2019-05-28T01:01:25.771Z,5.10
2019-05-28T01:06:29.250Z,4.53
2019-05-28T01:11:32.671Z,5.40
2019-05-28T01:16:36.118Z,8.13
2019-05-28T01:21:42.282Z,8.07
2019-05-28T01:26:44.749Z,9.63
2019-05-28T01:31:48.153Z,8.23
2019-05-28T01:36:51.588Z,7.47
2019-05-28T01:41:55.001Z,5.40
2019-05-28T01:46:58.522Z,6.57
2019-05-28T01:52:01.947Z,7.73
2019-05-28T01:57:05.366Z,7.07
2019-05-28T02:02:08.790Z,6.90
2019-05-28T02:07:12.283Z,8.63
2019-05-28T02:12:15.697Z,6.40
2019-05-28T02:17:19.117Z,7.73
2019-05-28T02:22:22.578Z,6.43
2019-05-28T02:27:26.014Z,12.60
2019-05-28T02:32:30.213Z,7.90
2019-05-28T02:37:33.746Z,8.83
2019-05-28T02:42:37.335Z,6.77
2019-05-28T02:47:40.761Z,7.33
2019-05-28T02:52:45.237Z,9.80
2019-05-28T02:57:49.994Z,7.93
2019-05-28T03:02:53.966Z,8.43
2019-05-28T03:07:58.041Z,9.50
2019-05-28T03:13:01.452Z,9.20
2019-05-28T03:18:06.652Z,7.83
2019-05-28T03:23:13.094Z,10.10
2019-05-28T03:28:16.599Z,8.53
2019-05-28T03:33:20.021Z,9.37
2019-05-28T03:38:25.944Z,7.13
2019-05-28T03:43:29.359Z,7.87
2019-05-28T03:48:32.796Z,6.70
2019-05-28T03:53:36.221Z,6.70
2019-05-28T03:58:39.649Z,11.57
2019-05-28T04:03:43.079Z,7.30
2019-05-28T04:08:46.496Z,7.07
2019-05-28T04:13:50.037Z,7.83
2019-05-28T04:18:53.537Z,7.50
2019-05-28T04:23:56.979Z,7.97
2019-05-28T04:29:00.421Z,8.37
2019-05-28T04:34:04.043Z,10.47
2019-05-28T04:39:08.560Z,9.37
2019-05-28T04:44:11.995Z,9.93
2019-05-28T04:49:15.488Z,16.90
2019-05-28T04:54:18.977Z,9.37
2019-05-28T04:59:22.410Z,9.57
2019-05-28T05:04:25.857Z,7.93
2019-05-28T05:09:29.303Z,9.17
2019-05-28T05:14:32.730Z,8.10
2019-05-28T05:19:36.198Z,9.47
2019-05-28T05:24:39.624Z,13.03
2019-05-28T05:29:43.125Z,6.37
2019-05-28T05:34:47.085Z,8.17
2019-05-28T05:39:51.154Z,7.60
2019-05-28T05:44:54.516Z,12.23
2019-05-28T05:49:57.980Z,8.53
2019-05-28T05:55:01.451Z,11.03
2019-05-28T06:00:06.997Z,6.20
2019-05-28T06:05:10.461Z,10.00
2019-05-28T06:10:14.538Z,8.73
2019-05-28T06:15:18.298Z,9.97
2019-05-28T06:20:21.796Z,7.67
2019-05-28T06:25:25.481Z,10.37
2019-05-28T06:30:28.993Z,8.13
2019-05-28T06:35:32.421Z,10.63
2019-05-28T06:40:35.875Z,5.93
2019-05-28T06:45:39.401Z,7.57
2019-05-28T06:50:42.828Z,8.70
2019-05-28T06:55:46.245Z,7.83
2019-05-28T07:00:49.675Z,6.40
2019-05-28T07:06:06.501Z,7.13
2019-05-28T07:10:58.606Z,9.70
2019-05-28T07:16:02.361Z,10.80
2019-05-28T07:21:05.783Z,6.90
2019-05-28T07:26:09.211Z,6.70
2019-05-28T07:31:12.627Z,14.57
2019-05-28T07:36:16.054Z,10.97
2019-05-28T07:41:19.469Z,8.47
2019-05-28T07:46:23.302Z,10.93
2019-05-28T07:51:26.699Z,9.57
2019-05-28T07:56:30.147Z,8.83
2019-05-28T08:01:33.653Z,8.40
2019-05-28T08:06:51.712Z,14.73
2019-05-28T08:11:42.217Z,9.50
2019-05-28T08:16:52.874Z,12.27
2019-05-28T08:21:50.858Z,9.40
2019-05-28T08:26:54.292Z,7.67
2019-05-28T08:31:57.696Z,8.93
2019-05-28T08:37:05.933Z,8.23
2019-05-28T08:42:06.360Z,5.33
2019-05-28T08:47:10.565Z,12.33
2019-05-28T08:52:14.064Z,14.67
2019-05-28T08:57:17.477Z,8.30
2019-05-28T09:02:27.659Z,4.73
2019-05-28T09:07:26.107Z,7.97
2019-05-28T09:12:29.509Z,4.50
2019-05-28T09:17:32.920Z,6.27
2019-05-28T09:22:36.349Z,7.93
2019-05-28T09:27:39.779Z,7.90
2019-05-28T09:32:43.227Z,11.17
2019-05-28T09:37:46.635Z,6.67
2019-05-28T09:42:50.106Z,8.27
2019-05-28T09:47:55.303Z,7.53
2019-05-28T09:52:58.854Z,6.67
2019-05-28T09:58:02.273Z,9.83
2019-05-28T10:03:06.580Z,7.90
2019-05-28T10:08:10.045Z,7.23
2019-05-28T10:13:13.487Z,10.20
2019-05-28T10:18:16.905Z,10.83
2019-05-28T10:23:20.372Z,10.13
2019-05-28T10:28:23.799Z,9.03
2019-05-28T10:33:27.214Z,9.10
2019-05-28T10:38:30.703Z,11.17
2019-05-28T10:43:34.130Z,7.90
2019-05-28T10:48:37.565Z,9.17
2019-05-28T10:53:41.243Z,7.07
2019-05-28T10:58:44.649Z,4.27
2019-05-28T11:03:48.065Z,6.50
2019-05-28T11:08:51.498Z,5.13
2019-05-28T11:13:54.915Z,6.90
2019-05-28T11:18:58.370Z,7.13
2019-05-28T11:24:02.644Z,7.90
2019-05-28T11:29:06.229Z,7.27
2019-05-28T11:34:09.656Z,4.10
2019-05-28T11:39:13.151Z,5.97
2019-05-28T11:44:16.552Z,6.47
2019-05-28T11:49:19.974Z,5.40
2019-05-28T11:54:23.485Z,4.33
2019-05-28T11:59:26.889Z,4.30
2019-05-28T12:04:30.345Z,4.30
2019-05-28T12:09:33.804Z,3.40
2019-05-28T12:14:37.229Z,4.73
2019-05-28T12:19:40.817Z,3.23
2019-05-28T12:24:44.205Z,2.97
2019-05-28T12:29:51.895Z,1.90
2019-05-28T12:34:52.781Z,2.80
2019-05-28T12:39:56.213Z,2.73
2019-05-28T12:45:09.328Z,3.20
2019-05-28T12:50:18.974Z,2.60
2019-05-28T12:55:13.876Z,3.23
2019-05-28T13:00:19.785Z,7.30
2019-05-28T13:05:26.274Z,4.93
2019-05-28T13:10:29.789Z,5.13
2019-05-28T13:15:33.242Z,7.07
2019-05-28T13:20:36.667Z,7.90
2019-05-28T13:25:40.130Z,6.27
2019-05-28T13:30:43.539Z,6.80
2019-05-28T13:35:47.284Z,7.73
2019-05-28T13:40:50.694Z,6.60
2019-05-28T13:45:54.127Z,9.00
2019-05-28T13:50:57.619Z,7.03
2019-05-28T13:56:01.042Z,6.20
2019-05-28T14:01:05.063Z,8.47
2019-05-28T14:06:08.459Z,8.37
2019-05-28T14:11:11.956Z,11.87
2019-05-28T14:16:15.391Z,9.60
2019-05-28T14:21:18.858Z,9.57
2019-05-28T14:26:22.390Z,10.50
2019-05-28T14:31:25.838Z,10.93
2019-05-28T14:36:29.273Z,9.40
2019-05-28T14:41:32.716Z,7.53
2019-05-28T14:46:36.188Z,8.53
2019-05-28T14:51:39.642Z,11.13
2019-05-28T14:56:43.073Z,8.57
2019-05-28T15:01:46.539Z,6.20
2019-05-28T15:06:50.117Z,6.57
2019-05-28T15:11:53.563Z,10.70
2019-05-28T15:16:56.999Z,4.93
2019-05-28T15:22:00.587Z,7.10
2019-05-28T15:27:04.075Z,6.13
2019-05-28T15:32:08.490Z,7.93
2019-05-28T15:37:12.008Z,7.97
2019-05-28T15:42:20.199Z,7.70
2019-05-28T15:47:20.661Z,9.27
2019-05-28T15:52:24.081Z,7.07
2019-05-28T15:57:27.506Z,9.63
2019-05-28T16:02:30.996Z,7.67
2019-05-28T16:07:34.470Z,9.20
2019-05-28T16:12:37.884Z,8.27
2019-05-28T16:17:41.330Z,8.13
2019-05-28T16:22:44.816Z,8.13
2019-05-28T16:27:48.262Z,7.47
2019-05-28T16:32:51.733Z,10.63
2019-05-28T16:37:55.162Z,10.57
2019-05-28T16:42:58.631Z,13.00
2019-05-28T16:48:02.103Z,9.97
2019-05-28T16:53:05.489Z,10.07
2019-05-28T16:58:08.921Z,9.47
2019-05-28T17:03:12.340Z,8.57
2019-05-28T17:08:16.008Z,10.40
2019-05-28T17:13:19.558Z,12.43
2019-05-28T17:18:23.088Z,10.17
2019-05-28T17:23:26.527Z,10.80
2019-05-28T17:28:30.030Z,9.33
2019-05-28T17:33:33.456Z,9.27
2019-05-28T17:38:37.567Z,8.97
2019-05-28T17:43:41.096Z,9.80
2019-05-28T17:48:46.277Z,12.20
2019-05-28T17:53:51.847Z,9.53
2019-05-28T17:58:55.301Z,9.20
2019-05-28T18:03:58.723Z,9.23
2019-05-28T18:09:02.201Z,9.77
2019-05-28T18:14:05.664Z,13.17
2019-05-28T18:19:09.094Z,11.80
2019-05-28T18:24:12.522Z,10.60
2019-05-28T18:29:16.793Z,9.30
2019-05-28T18:34:20.270Z,8.90
2019-05-28T18:39:25.549Z,10.00
2019-05-28T18:44:30.199Z,8.63
2019-05-28T18:49:33.669Z,8.93
2019-05-28T18:54:37.942Z,9.60
2019-05-28T18:59:42.402Z,8.70
2019-05-28T19:04:45.853Z,21.17
2019-05-28T19:09:49.407Z,12.13
2019-05-28T19:14:52.913Z,8.77
2019-05-28T19:19:56.350Z,9.57
2019-05-28T19:24:59.793Z,7.23
2019-05-28T19:30:04.625Z,9.87
2019-05-28T19:35:09.597Z,8.90
2019-05-28T19:40:14.627Z,8.57
2019-05-28T19:45:19.086Z,5.70
2019-05-28T19:50:22.489Z,4.63
2019-05-28T19:55:25.916Z,8.30
2019-05-28T20:00:30.021Z,6.27
2019-05-28T20:05:33.429Z,7.37
2019-05-28T20:10:36.912Z,5.07
2019-05-28T20:15:40.353Z,4.23
2019-05-28T20:20:43.795Z,5.87
2019-05-28T20:25:51.155Z,8.73
2019-05-28T20:30:53.262Z,7.57
2019-05-28T20:35:56.706Z,9.67
2019-05-28T20:41:00.129Z,2.07
2019-05-28T20:46:04.492Z,2.43
2019-05-28T20:51:19.639Z,3.13
2019-05-28T20:56:13.021Z,1.93
2019-05-28T21:01:16.447Z,2.43
2019-05-28T21:06:19.882Z,8.93
2019-05-28T21:11:23.334Z,1.70
2019-05-28T21:16:26.769Z,1.70
2019-05-28T21:21:30.191Z,2.70
2019-05-28T21:26:33.633Z,5.17
2019-05-28T21:31:37.075Z,2.97
2019-05-28T21:36:40.507Z,4.10
2019-05-28T21:41:43.939Z,5.80
2019-05-28T21:46:47.625Z,3.20
2019-05-28T21:51:51.091Z,2.50
2019-05-28T21:56:55.213Z,3.67
2019-05-28T22:02:00.067Z,2.23
2019-05-28T22:07:03.826Z,3.20
2019-05-28T22:12:08.393Z,1.67
2019-05-28T22:17:13.227Z,1.63
2019-05-28T22:22:16.825Z,1.33
2019-05-28T22:27:20.275Z,1.33
2019-05-28T22:32:23.768Z,3.40
2019-05-28T22:37:27.204Z,2.10
2019-05-28T22:42:30.644Z,1.77
2019-05-28T22:47:34.062Z,2.00
2019-05-28T22:52:37.667Z,1.93
2019-05-28T22:57:41.159Z,1.43
2019-05-28T23:02:44.590Z,3.67
2019-05-28T23:07:48.002Z,2.60
2019-05-28T23:12:51.470Z,2.17
2019-05-28T23:17:54.897Z,1.13
2019-05-28T23:22:58.383Z,1.30
2019-05-28T23:28:01.789Z,3.97
2019-05-28T23:33:06.259Z,4.03
2019-05-28T23:38:09.828Z,1.70
2019-05-28T23:43:13.831Z,0.97
2019-05-28T23:48:18.512Z,1.60
2019-05-28T23:53:22.073Z,1.30
2019-05-28T23:58:25.558Z,2.50
